sensor_id;sensor_type;location;lat;lon;timestamp;pressure;altitude;pressure_sealevel;temperature;humidity
29163;BME280;20331;53.144;8.208;2023-05-11T00:00:43;101538.13;;;13.91;93.96
29163;BME280;20331;53.144;8.208;2023-05-11T00:11:08;101543.81;;;13.76;94.12
29163;BME280;20331;53.144;8.208;2023-05-11T00:21:29;101544.91;;;13.69;93.60
29163;BME280;20331;53.144;8.208;2023-05-11T00:31:51;101551.09;;;13.65;93.92
29163;BME280;20331;53.144;8.208;2023-05-11T00:42:12;101547.78;;;13.60;92.60
29163;BME280;20331;53.144;8.208;2023-05-11T00:52:33;101546.28;;;13.53;93.09
29163;BME280;20331;53.144;8.208;2023-05-11T01:02:55;101548.25;;;13.45;93.99
29163;BME280;20331;53.144;8.208;2023-05-11T01:13:30;101551.19;;;13.34;94.04
29163;BME280;20331;53.144;8.208;2023-05-11T01:34:19;101566.94;;;13.28;94.05
29163;BME280;20331;53.144;8.208;2023-05-11T01:44:41;101582.59;;;13.27;91.66
29163;BME280;20331;53.144;8.208;2023-05-11T01:55:04;101585.28;;;13.24;92.88
29163;BME280;20331;53.144;8.208;2023-05-11T02:05:27;101582.97;;;13.13;93.48
29163;BME280;20331;53.144;8.208;2023-05-11T02:15:50;101598.81;;;13.04;93.50
29163;BME280;20331;53.144;8.208;2023-05-11T02:26:13;101596.63;;;12.89;94.15
29163;BME280;20331;53.144;8.208;2023-05-11T02:36:36;101608.81;;;12.87;94.04
29163;BME280;20331;53.144;8.208;2023-05-11T02:46:59;101618.63;;;12.76;94.68
29163;BME280;20331;53.144;8.208;2023-05-11T02:57:22;101611.81;;;12.72;93.80
29163;BME280;20331;53.144;8.208;2023-05-11T03:07:44;101616.38;;;12.62;96.47
29163;BME280;20331;53.144;8.208;2023-05-11T03:18:06;101616.38;;;12.62;94.25
29163;BME280;20331;53.144;8.208;2023-05-11T03:28:27;101613.78;;;12.62;94.43
29163;BME280;20331;53.144;8.208;2023-05-11T03:38:49;101615.69;;;12.56;94.47
29163;BME280;20331;53.144;8.208;2023-05-11T03:49:13;101611.56;;;12.49;94.89
29163;BME280;20331;53.144;8.208;2023-05-11T03:59:37;101622.75;;;12.49;95.27
29163;BME280;20331;53.144;8.208;2023-05-11T04:09:59;101618.56;;;12.45;94.23
29163;BME280;20331;53.144;8.208;2023-05-11T04:20:20;101620.56;;;12.34;93.76
29163;BME280;20331;53.144;8.208;2023-05-11T04:30:42;101619.94;;;12.25;95.05
29163;BME280;20331;53.144;8.208;2023-05-11T04:41:04;101624.34;;;12.21;94.86
29163;BME280;20331;53.144;8.208;2023-05-11T04:51:25;101619.38;;;12.12;94.92
29163;BME280;20331;53.144;8.208;2023-05-11T05:01:47;101625.56;;;12.05;95.75
29163;BME280;20331;53.144;8.208;2023-05-11T05:12:08;101634.78;;;12.18;95.03
29163;BME280;20331;53.144;8.208;2023-05-11T05:22:29;101640.13;;;12.12;94.56
29163;BME280;20331;53.144;8.208;2023-05-11T05:32:51;101649.47;;;12.19;94.96
29163;BME280;20331;53.144;8.208;2023-05-11T05:43:13;101668.47;;;12.21;94.39
29163;BME280;20331;53.144;8.208;2023-05-11T05:53:34;101672.88;;;12.16;94.33
29163;BME280;20331;53.144;8.208;2023-05-11T06:03:56;101689.22;;;12.21;94.53
29163;BME280;20331;53.144;8.208;2023-05-11T06:14:18;101698.63;;;12.25;94.72
29163;BME280;20331;53.144;8.208;2023-05-11T06:24:40;101691.53;;;12.33;96.00
29163;BME280;20331;53.144;8.208;2023-05-11T06:35:02;101687.84;;;12.43;95.37
29163;BME280;20331;53.144;8.208;2023-05-11T06:45:23;101685.03;;;12.51;95.42
29163;BME280;20331;53.144;8.208;2023-05-11T06:55:45;101691.31;;;12.42;95.11
29163;BME280;20331;53.144;8.208;2023-05-11T07:06:06;101693.81;;;12.47;95.29
29163;BME280;20331;53.144;8.208;2023-05-11T07:16:28;101689.16;;;12.59;95.56
29163;BME280;20331;53.144;8.208;2023-05-11T07:26:49;101701.00;;;12.69;96.11
29163;BME280;20331;53.144;8.208;2023-05-11T07:37:12;101708.59;;;12.78;96.10
29163;BME280;20331;53.144;8.208;2023-05-11T07:47:33;101710.94;;;12.87;94.13
29163;BME280;20331;53.144;8.208;2023-05-11T07:57:57;101704.59;;;12.99;94.58
29163;BME280;20331;53.144;8.208;2023-05-11T08:08:18;101713.00;;;13.10;93.38
29163;BME280;20331;53.144;8.208;2023-05-11T08:18:40;101715.34;;;13.19;95.05
29163;BME280;20331;53.144;8.208;2023-05-11T08:29:01;101729.84;;;13.28;93.47
29163;BME280;20331;53.144;8.208;2023-05-11T08:39:24;101727.03;;;13.37;92.96
29163;BME280;20331;53.144;8.208;2023-05-11T08:50:05;101732.75;;;13.49;92.87
29163;BME280;20331;53.144;8.208;2023-05-11T09:00:28;101732.19;;;13.69;92.59
29163;BME280;20331;53.144;8.208;2023-05-11T09:10:49;101733.09;;;13.97;90.56
29163;BME280;20331;53.144;8.208;2023-05-11T09:21:12;101728.22;;;14.14;89.64
29163;BME280;20331;53.144;8.208;2023-05-11T09:31:39;101730.81;;;14.43;88.17
29163;BME280;20331;53.144;8.208;2023-05-11T09:52:34;101724.63;;;14.73;88.69
29163;BME280;20331;53.144;8.208;2023-05-11T10:03:04;101722.72;;;14.78;88.34
29163;BME280;20331;53.144;8.208;2023-05-11T10:13:27;101715.28;;;14.92;86.55
29163;BME280;20331;53.144;8.208;2023-05-11T10:23:49;101718.84;;;15.16;86.27
29163;BME280;20331;53.144;8.208;2023-05-11T10:34:11;101710.28;;;15.13;86.63
29163;BME280;20331;53.144;8.208;2023-05-11T10:44:37;101706.31;;;15.26;87.04
29163;BME280;20331;53.144;8.208;2023-05-11T10:55:20;101713.81;;;15.35;85.63
29163;BME280;20331;53.144;8.208;2023-05-11T11:05:45;101720.63;;;15.39;85.44
29163;BME280;20331;53.144;8.208;2023-05-11T11:16:08;101722.13;;;15.46;85.21
29163;BME280;20331;53.144;8.208;2023-05-11T11:26:46;101714.03;;;15.53;84.35
29163;BME280;20331;53.144;8.208;2023-05-11T11:37:08;101720.47;;;15.68;83.47
29163;BME280;20331;53.144;8.208;2023-05-11T11:47:29;101709.22;;;15.66;86.18
29163;BME280;20331;53.144;8.208;2023-05-11T11:57:51;101713.31;;;15.96;84.05
29163;BME280;20331;53.144;8.208;2023-05-11T12:08:12;101720.13;;;15.77;87.16
29163;BME280;20331;53.144;8.208;2023-05-11T12:18:35;101720.19;;;15.75;85.66
29163;BME280;20331;53.144;8.208;2023-05-11T12:29:07;101717.63;;;15.74;88.44
29163;BME280;20331;53.144;8.208;2023-05-11T12:39:29;101712.03;;;15.61;86.88
29163;BME280;20331;53.144;8.208;2023-05-11T12:49:51;101717.97;;;15.65;86.27
29163;BME280;20331;53.144;8.208;2023-05-11T13:10:34;101701.19;;;15.95;84.55
29163;BME280;20331;53.144;8.208;2023-05-11T13:21:06;101695.41;;;16.08;86.54
29163;BME280;20331;53.144;8.208;2023-05-11T13:31:27;101684.53;;;16.19;84.86
29163;BME280;20331;53.144;8.208;2023-05-11T13:41:49;101674.06;;;16.21;84.18
29163;BME280;20331;53.144;8.208;2023-05-11T13:52:13;101674.09;;;16.19;84.00
29163;BME280;20331;53.144;8.208;2023-05-11T14:02:35;101675.53;;;16.26;85.75
29163;BME280;20331;53.144;8.208;2023-05-11T14:12:56;101667.84;;;16.23;83.52
29163;BME280;20331;53.144;8.208;2023-05-11T14:23:18;101675.91;;;16.17;85.33
29163;BME280;20331;53.144;8.208;2023-05-11T14:33:39;101667.53;;;16.09;86.01
29163;BME280;20331;53.144;8.208;2023-05-11T14:44:01;101669.59;;;16.01;87.50
29163;BME280;20331;53.144;8.208;2023-05-11T14:54:22;101651.50;;;15.96;88.95
29163;BME280;20331;53.144;8.208;2023-05-11T15:04:43;101660.53;;;15.88;89.05
29163;BME280;20331;53.144;8.208;2023-05-11T15:15:05;101656.41;;;15.82;89.62
29163;BME280;20331;53.144;8.208;2023-05-11T15:25:26;101659.72;;;15.86;91.88
29163;BME280;20331;53.144;8.208;2023-05-11T15:35:48;101680.97;;;15.77;88.84
29163;BME280;20331;53.144;8.208;2023-05-11T15:46:10;101680.66;;;15.63;89.39
29163;BME280;20331;53.144;8.208;2023-05-11T15:56:32;101679.50;;;15.47;90.03
29163;BME280;20331;53.144;8.208;2023-05-11T16:06:53;101694.53;;;15.39;91.69
29163;BME280;20331;53.144;8.208;2023-05-11T16:17:18;101696.34;;;15.37;89.55
29163;BME280;20331;53.144;8.208;2023-05-11T16:27:39;101707.34;;;15.22;92.36
29163;BME280;20331;53.144;8.208;2023-05-11T16:38:01;101711.03;;;15.14;90.41
29163;BME280;20331;53.144;8.208;2023-05-11T16:48:22;101722.59;;;15.07;91.14
29163;BME280;20331;53.144;8.208;2023-05-11T16:58:46;101713.16;;;15.03;90.76
29163;BME280;20331;53.144;8.208;2023-05-11T17:09:08;101697.75;;;14.97;94.62
29163;BME280;20331;53.144;8.208;2023-05-11T17:19:30;101675.44;;;14.89;93.24
29163;BME280;20331;53.144;8.208;2023-05-11T17:29:51;101695.06;;;14.74;93.44
29163;BME280;20331;53.144;8.208;2023-05-11T17:40:13;101687.66;;;14.62;94.55
29163;BME280;20331;53.144;8.208;2023-05-11T17:50:36;101689.72;;;14.53;93.53
29163;BME280;20331;53.144;8.208;2023-05-11T18:00:57;101691.91;;;14.39;94.34
29163;BME280;20331;53.144;8.208;2023-05-11T18:11:18;101714.78;;;14.29;95.40
29163;BME280;20331;53.144;8.208;2023-05-11T18:21:40;101701.91;;;14.23;94.68
29163;BME280;20331;53.144;8.208;2023-05-11T18:32:01;101706.34;;;14.20;94.49
29163;BME280;20331;53.144;8.208;2023-05-11T18:42:23;101737.59;;;14.20;95.52
29163;BME280;20331;53.144;8.208;2023-05-11T18:52:44;101727.25;;;14.18;96.52
29163;BME280;20331;53.144;8.208;2023-05-11T19:03:06;101715.25;;;14.12;94.59
29163;BME280;20331;53.144;8.208;2023-05-11T19:13:27;101718.78;;;14.10;96.03
29163;BME280;20331;53.144;8.208;2023-05-11T19:23:49;101731.75;;;14.13;97.51
29163;BME280;20331;53.144;8.208;2023-05-11T19:34:10;101749.16;;;14.11;98.98
29163;BME280;20331;53.144;8.208;2023-05-11T19:44:32;101751.66;;;14.14;97.04
29163;BME280;20331;53.144;8.208;2023-05-11T19:54:54;101765.53;;;14.14;96.46
29163;BME280;20331;53.144;8.208;2023-05-11T20:05:16;101778.53;;;14.14;96.89
29163;BME280;20331;53.144;8.208;2023-05-11T20:15:37;101788.84;;;14.18;99.11
29163;BME280;20331;53.144;8.208;2023-05-11T20:25:59;101785.44;;;14.15;97.52
29163;BME280;20331;53.144;8.208;2023-05-11T20:36:21;101787.22;;;14.15;96.92
29163;BME280;20331;53.144;8.208;2023-05-11T20:46:42;101778.66;;;14.10;97.40
29163;BME280;20331;53.144;8.208;2023-05-11T20:57:04;101763.91;;;14.10;99.35
29163;BME280;20331;53.144;8.208;2023-05-11T21:07:25;101752.78;;;14.05;98.07
29163;BME280;20331;53.144;8.208;2023-05-11T21:17:48;101762.25;;;14.08;97.73
29163;BME280;20331;53.144;8.208;2023-05-11T21:28:10;101756.16;;;14.09;100.00
29163;BME280;20331;53.144;8.208;2023-05-11T21:38:31;101753.69;;;14.04;97.59
29163;BME280;20331;53.144;8.208;2023-05-11T21:48:52;101752.72;;;14.07;99.13
29163;BME280;20331;53.144;8.208;2023-05-11T21:59:14;101745.63;;;14.12;98.95
29163;BME280;20331;53.144;8.208;2023-05-11T22:09:37;101744.75;;;14.13;98.55
29163;BME280;20331;53.144;8.208;2023-05-11T22:19:58;101750.66;;;14.18;97.79
29163;BME280;20331;53.144;8.208;2023-05-11T22:30:20;101740.25;;;14.18;98.54
29163;BME280;20331;53.144;8.208;2023-05-11T22:40:41;101745.28;;;14.24;97.17
29163;BME280;20331;53.144;8.208;2023-05-11T22:51:03;101747.94;;;14.23;98.30
29163;BME280;20331;53.144;8.208;2023-05-11T23:01:26;101746.16;;;14.25;98.20
29163;BME280;20331;53.144;8.208;2023-05-11T23:11:48;101766.03;;;14.27;98.01
29163;BME280;20331;53.144;8.208;2023-05-11T23:22:10;101766.91;;;14.26;98.98
29163;BME280;20331;53.144;8.208;2023-05-11T23:32:31;101755.63;;;14.27;100.00
29163;BME280;20331;53.144;8.208;2023-05-11T23:42:53;101766.13;;;14.24;98.09
29163;BME280;20331;53.144;8.208;2023-05-11T23:53:14;101763.50;;;14.24;98.18
